sensor_id;sensor_type;location;lat;lon;timestamp;temperature;humidity
34640;DHT22;22600;48.186;11.526;2022-08-21T00:00:24;24.80;67.10
34640;DHT22;22600;48.186;11.526;2022-08-21T00:02:57;24.80;67.10
34640;DHT22;22600;48.186;11.526;2022-08-21T00:05:24;24.80;67.20
34640;DHT22;22600;48.186;11.526;2022-08-21T00:07:50;24.80;67.20
34640;DHT22;22600;48.186;11.526;2022-08-21T00:10:16;24.80;67.20
34640;DHT22;22600;48.186;11.526;2022-08-21T00:12:43;23.50;66.40
34640;DHT22;22600;48.186;11.526;2022-08-21T00:15:10;24.80;67.20
34640;DHT22;22600;48.186;11.526;2022-08-21T00:17:36;24.80;66.60
34640;DHT22;22600;48.186;11.526;2022-08-21T00:20:05;24.80;67.20
34640;DHT22;22600;48.186;11.526;2022-08-21T00:22:32;24.80;67.20
34640;DHT22;22600;48.186;11.526;2022-08-21T00:24:58;24.80;67.20
34640;DHT22;22600;48.186;11.526;2022-08-21T00:27:23;24.80;67.20
34640;DHT22;22600;48.186;11.526;2022-08-21T00:29:49;24.80;67.20
34640;DHT22;22600;48.186;11.526;2022-08-21T00:32:21;24.80;67.20
34640;DHT22;22600;48.186;11.526;2022-08-21T00:34:47;24.80;67.20
34640;DHT22;22600;48.186;11.526;2022-08-21T00:37:12;24.80;67.20
34640;DHT22;22600;48.186;11.526;2022-08-21T00:39:38;23.10;66.10
34640;DHT22;22600;48.186;11.526;2022-08-21T00:42:04;24.80;67.20
34640;DHT22;22600;48.186;11.526;2022-08-21T00:44:29;24.80;67.20
34640;DHT22;22600;48.186;11.526;2022-08-21T00:46:56;24.80;67.20
34640;DHT22;22600;48.186;11.526;2022-08-21T00:49:22;24.80;67.20
34640;DHT22;22600;48.186;11.526;2022-08-21T00:51:55;24.80;67.20
34640;DHT22;22600;48.186;11.526;2022-08-21T00:54:25;24.80;67.20
34640;DHT22;22600;48.186;11.526;2022-08-21T00:56:56;24.80;67.20
34640;DHT22;22600;48.186;11.526;2022-08-21T00:59:23;24.70;67.20
34640;DHT22;22600;48.186;11.526;2022-08-21T01:01:49;24.80;67.20
34640;DHT22;22600;48.186;11.526;2022-08-21T01:04:16;24.80;67.20
34640;DHT22;22600;48.186;11.526;2022-08-21T01:06:42;24.80;67.20
34640;DHT22;22600;48.186;11.526;2022-08-21T01:09:08;24.70;67.20
34640;DHT22;22600;48.186;11.526;2022-08-21T01:11:34;24.80;67.30
34640;DHT22;22600;48.186;11.526;2022-08-21T01:14:01;24.80;67.20
34640;DHT22;22600;48.186;11.526;2022-08-21T01:16:27;24.80;67.20
34640;DHT22;22600;48.186;11.526;2022-08-21T01:18:53;24.70;67.90
34640;DHT22;22600;48.186;11.526;2022-08-21T01:21:23;24.70;67.20
34640;DHT22;22600;48.186;11.526;2022-08-21T01:23:51;24.70;67.20
34640;DHT22;22600;48.186;11.526;2022-08-21T01:26:24;24.80;67.30
34640;DHT22;22600;48.186;11.526;2022-08-21T01:31:45;24.70;67.20
34640;DHT22;22600;48.186;11.526;2022-08-21T01:34:11;24.80;67.20
34640;DHT22;22600;48.186;11.526;2022-08-21T01:36:37;24.80;67.20
34640;DHT22;22600;48.186;11.526;2022-08-21T01:39:04;24.70;67.10
34640;DHT22;22600;48.186;11.526;2022-08-21T01:41:30;24.70;67.20
34640;DHT22;22600;48.186;11.526;2022-08-21T01:43:55;24.70;67.20
34640;DHT22;22600;48.186;11.526;2022-08-21T01:46:21;24.70;67.20
34640;DHT22;22600;48.186;11.526;2022-08-21T01:48:47;24.70;67.10
34640;DHT22;22600;48.186;11.526;2022-08-21T01:51:13;24.80;67.20
34640;DHT22;22600;48.186;11.526;2022-08-21T01:53:39;24.70;67.20
34640;DHT22;22600;48.186;11.526;2022-08-21T01:56:07;24.70;67.20
34640;DHT22;22600;48.186;11.526;2022-08-21T01:58:33;24.70;67.20
34640;DHT22;22600;48.186;11.526;2022-08-21T02:01:00;24.70;67.20
34640;DHT22;22600;48.186;11.526;2022-08-21T02:03:29;24.70;67.20
34640;DHT22;22600;48.186;11.526;2022-08-21T02:05:55;24.70;67.10
34640;DHT22;22600;48.186;11.526;2022-08-21T02:08:21;24.80;67.20
34640;DHT22;22600;48.186;11.526;2022-08-21T02:10:49;24.80;67.20
34640;DHT22;22600;48.186;11.526;2022-08-21T02:13:15;24.70;67.20
34640;DHT22;22600;48.186;11.526;2022-08-21T02:15:41;24.70;67.20
34640;DHT22;22600;48.186;11.526;2022-08-21T02:18:07;24.70;67.20
34640;DHT22;22600;48.186;11.526;2022-08-21T02:20:37;24.70;67.20
34640;DHT22;22600;48.186;11.526;2022-08-21T02:23:05;24.80;67.20
34640;DHT22;22600;48.186;11.526;2022-08-21T02:25:32;24.80;67.20
34640;DHT22;22600;48.186;11.526;2022-08-21T02:27:59;24.70;67.10
34640;DHT22;22600;48.186;11.526;2022-08-21T02:30:28;24.70;67.20
34640;DHT22;22600;48.186;11.526;2022-08-21T02:32:55;24.70;67.10
34640;DHT22;22600;48.186;11.526;2022-08-21T02:35:21;24.70;67.10
34640;DHT22;22600;48.186;11.526;2022-08-21T02:37:53;24.70;67.20
34640;DHT22;22600;48.186;11.526;2022-08-21T02:40:21;24.70;67.20
34640;DHT22;22600;48.186;11.526;2022-08-21T02:42:47;24.70;67.20
34640;DHT22;22600;48.186;11.526;2022-08-21T02:45:14;24.20;66.90
34640;DHT22;22600;48.186;11.526;2022-08-21T02:47:47;24.70;67.20
34640;DHT22;22600;48.186;11.526;2022-08-21T02:50:13;24.70;67.20
34640;DHT22;22600;48.186;11.526;2022-08-21T02:52:41;24.70;67.20
34640;DHT22;22600;48.186;11.526;2022-08-21T02:55:07;24.70;67.10
34640;DHT22;22600;48.186;11.526;2022-08-21T02:57:33;24.70;67.20
34640;DHT22;22600;48.186;11.526;2022-08-21T02:59:58;24.70;67.20
34640;DHT22;22600;48.186;11.526;2022-08-21T03:02:24;24.70;67.20
34640;DHT22;22600;48.186;11.526;2022-08-21T03:04:50;24.70;67.20
34640;DHT22;22600;48.186;11.526;2022-08-21T03:07:15;24.70;67.20
34640;DHT22;22600;48.186;11.526;2022-08-21T03:09:41;24.70;67.20
34640;DHT22;22600;48.186;11.526;2022-08-21T03:12:06;24.70;67.30
34640;DHT22;22600;48.186;11.526;2022-08-21T03:14:32;24.70;67.20
34640;DHT22;22600;48.186;11.526;2022-08-21T03:16:57;24.70;68.00
34640;DHT22;22600;48.186;11.526;2022-08-21T03:19:23;24.60;67.20
34640;DHT22;22600;48.186;11.526;2022-08-21T03:21:49;24.70;67.20
34640;DHT22;22600;48.186;11.526;2022-08-21T03:24:14;24.70;67.20
34640;DHT22;22600;48.186;11.526;2022-08-21T03:26:40;24.70;67.20
34640;DHT22;22600;48.186;11.526;2022-08-21T03:29:05;24.70;67.20
34640;DHT22;22600;48.186;11.526;2022-08-21T03:31:32;24.70;67.20
34640;DHT22;22600;48.186;11.526;2022-08-21T03:33:58;24.70;67.20
34640;DHT22;22600;48.186;11.526;2022-08-21T03:36:24;24.70;67.30
34640;DHT22;22600;48.186;11.526;2022-08-21T03:38:50;24.70;68.00
34640;DHT22;22600;48.186;11.526;2022-08-21T03:41:16;24.70;67.20
34640;DHT22;22600;48.186;11.526;2022-08-21T03:43:41;24.70;67.20
34640;DHT22;22600;48.186;11.526;2022-08-21T03:46:07;24.70;67.20
34640;DHT22;22600;48.186;11.526;2022-08-21T03:48:34;24.70;67.20
34640;DHT22;22600;48.186;11.526;2022-08-21T03:51:00;24.70;67.20
34640;DHT22;22600;48.186;11.526;2022-08-21T03:53:26;24.70;67.20
34640;DHT22;22600;48.186;11.526;2022-08-21T03:55:52;24.70;67.20
34640;DHT22;22600;48.186;11.526;2022-08-21T03:58:20;24.60;67.20
34640;DHT22;22600;48.186;11.526;2022-08-21T04:00:47;24.70;67.20
34640;DHT22;22600;48.186;11.526;2022-08-21T04:03:14;24.70;67.20
34640;DHT22;22600;48.186;11.526;2022-08-21T04:05:40;24.60;67.20
34640;DHT22;22600;48.186;11.526;2022-08-21T04:08:06;24.60;67.20
34640;DHT22;22600;48.186;11.526;2022-08-21T04:10:34;24.60;67.20
34640;DHT22;22600;48.186;11.526;2022-08-21T04:13:01;26.10;68.30
34640;DHT22;22600;48.186;11.526;2022-08-21T04:15:27;24.60;67.20
34640;DHT22;22600;48.186;11.526;2022-08-21T04:17:52;24.60;67.20
34640;DHT22;22600;48.186;11.526;2022-08-21T04:20:19;24.70;67.20
34640;DHT22;22600;48.186;11.526;2022-08-21T04:22:47;24.60;67.20
34640;DHT22;22600;48.186;11.526;2022-08-21T04:25:14;24.60;67.20
34640;DHT22;22600;48.186;11.526;2022-08-21T04:27:41;24.60;67.20
34640;DHT22;22600;48.186;11.526;2022-08-21T04:30:07;24.60;67.20
34640;DHT22;22600;48.186;11.526;2022-08-21T04:32:35;24.60;67.20
34640;DHT22;22600;48.186;11.526;2022-08-21T04:35:05;24.70;67.20
34640;DHT22;22600;48.186;11.526;2022-08-21T04:37:31;24.70;67.30
34640;DHT22;22600;48.186;11.526;2022-08-21T04:39:57;24.60;67.20
34640;DHT22;22600;48.186;11.526;2022-08-21T04:42:24;24.60;67.20
34640;DHT22;22600;48.186;11.526;2022-08-21T04:44:51;24.60;67.20
34640;DHT22;22600;48.186;11.526;2022-08-21T04:47:17;24.60;67.20
34640;DHT22;22600;48.186;11.526;2022-08-21T04:49:43;24.60;67.20
34640;DHT22;22600;48.186;11.526;2022-08-21T04:52:09;24.60;67.20
34640;DHT22;22600;48.186;11.526;2022-08-21T04:54:36;24.50;67.10
34640;DHT22;22600;48.186;11.526;2022-08-21T04:57:05;24.60;67.20
34640;DHT22;22600;48.186;11.526;2022-08-21T04:59:39;24.70;67.20
34640;DHT22;22600;48.186;11.526;2022-08-21T05:02:06;24.70;67.20
34640;DHT22;22600;48.186;11.526;2022-08-21T05:04:33;24.60;67.20
34640;DHT22;22600;48.186;11.526;2022-08-21T05:07:02;24.60;67.20
34640;DHT22;22600;48.186;11.526;2022-08-21T05:09:29;24.60;67.20
34640;DHT22;22600;48.186;11.526;2022-08-21T05:11:55;24.60;67.20
34640;DHT22;22600;48.186;11.526;2022-08-21T05:14:21;24.60;67.20
34640;DHT22;22600;48.186;11.526;2022-08-21T05:16:47;24.60;67.40
34640;DHT22;22600;48.186;11.526;2022-08-21T05:19:13;24.60;67.40
34640;DHT22;22600;48.186;11.526;2022-08-21T05:21:42;24.70;67.50
34640;DHT22;22600;48.186;11.526;2022-08-21T05:24:09;24.70;67.50
34640;DHT22;22600;48.186;11.526;2022-08-21T05:26:35;24.70;67.40
34640;DHT22;22600;48.186;11.526;2022-08-21T05:29:02;24.70;67.30
34640;DHT22;22600;48.186;11.526;2022-08-21T05:31:28;24.70;67.20
34640;DHT22;22600;48.186;11.526;2022-08-21T05:33:53;24.80;67.20
34640;DHT22;22600;48.186;11.526;2022-08-21T05:36:19;24.80;67.10
34640;DHT22;22600;48.186;11.526;2022-08-21T05:38:45;24.80;67.90
34640;DHT22;22600;48.186;11.526;2022-08-21T05:41:11;24.80;67.10
34640;DHT22;22600;48.186;11.526;2022-08-21T05:43:36;24.80;67.10
34640;DHT22;22600;48.186;11.526;2022-08-21T05:46:03;24.80;67.10
34640;DHT22;22600;48.186;11.526;2022-08-21T05:48:30;24.80;67.10
34640;DHT22;22600;48.186;11.526;2022-08-21T05:50:56;24.90;67.10
34640;DHT22;22600;48.186;11.526;2022-08-21T05:53:22;24.90;67.10
34640;DHT22;22600;48.186;11.526;2022-08-21T05:55:48;25.60;67.50
34640;DHT22;22600;48.186;11.526;2022-08-21T05:58:16;24.90;67.00
34640;DHT22;22600;48.186;11.526;2022-08-21T06:00:43;24.90;67.00
34640;DHT22;22600;48.186;11.526;2022-08-21T06:03:16;24.90;66.90
34640;DHT22;22600;48.186;11.526;2022-08-21T06:05:42;24.90;66.80
34640;DHT22;22600;48.186;11.526;2022-08-21T06:08:08;25.00;66.90
34640;DHT22;22600;48.186;11.526;2022-08-21T06:10:34;25.00;66.80
34640;DHT22;22600;48.186;11.526;2022-08-21T06:12:59;25.00;66.80
34640;DHT22;22600;48.186;11.526;2022-08-21T06:15:25;25.00;66.80
34640;DHT22;22600;48.186;11.526;2022-08-21T06:17:52;25.10;66.70
34640;DHT22;22600;48.186;11.526;2022-08-21T06:20:18;25.00;66.70
34640;DHT22;22600;48.186;11.526;2022-08-21T06:22:43;25.10;66.70
34640;DHT22;22600;48.186;11.526;2022-08-21T06:25:09;25.10;66.60
34640;DHT22;22600;48.186;11.526;2022-08-21T06:27:35;25.10;66.60
34640;DHT22;22600;48.186;11.526;2022-08-21T06:30:01;25.10;66.50
34640;DHT22;22600;48.186;11.526;2022-08-21T06:32:26;25.10;66.40
34640;DHT22;22600;48.186;11.526;2022-08-21T06:34:52;25.10;66.40
34640;DHT22;22600;48.186;11.526;2022-08-21T06:37:17;25.10;66.70
34640;DHT22;22600;48.186;11.526;2022-08-21T06:39:43;25.20;66.40
34640;DHT22;22600;48.186;11.526;2022-08-21T06:42:14;25.20;66.40
34640;DHT22;22600;48.186;11.526;2022-08-21T06:44:39;25.20;66.40
34640;DHT22;22600;48.186;11.526;2022-08-21T06:47:05;25.20;66.30
34640;DHT22;22600;48.186;11.526;2022-08-21T06:49:30;25.20;66.30
34640;DHT22;22600;48.186;11.526;2022-08-21T06:51:56;25.20;66.20
34640;DHT22;22600;48.186;11.526;2022-08-21T06:54:21;25.20;66.10
34640;DHT22;22600;48.186;11.526;2022-08-21T06:56:47;25.30;66.20
34640;DHT22;22600;48.186;11.526;2022-08-21T06:59:12;25.30;66.10
34640;DHT22;22600;48.186;11.526;2022-08-21T07:01:38;25.30;66.10
34640;DHT22;22600;48.186;11.526;2022-08-21T07:04:04;25.30;66.10
34640;DHT22;22600;48.186;11.526;2022-08-21T07:06:30;25.30;66.00
34640;DHT22;22600;48.186;11.526;2022-08-21T07:08:55;25.30;65.90
34640;DHT22;22600;48.186;11.526;2022-08-21T07:11:23;25.30;65.90
34640;DHT22;22600;48.186;11.526;2022-08-21T07:13:50;25.40;65.90
34640;DHT22;22600;48.186;11.526;2022-08-21T07:16:18;25.40;65.90
34640;DHT22;22600;48.186;11.526;2022-08-21T07:18:43;25.40;65.80
34640;DHT22;22600;48.186;11.526;2022-08-21T07:21:09;25.40;65.80
34640;DHT22;22600;48.186;11.526;2022-08-21T07:23:39;25.40;65.80
34640;DHT22;22600;48.186;11.526;2022-08-21T07:26:06;25.40;65.80
34640;DHT22;22600;48.186;11.526;2022-08-21T07:28:32;25.40;65.70
34640;DHT22;22600;48.186;11.526;2022-08-21T07:30:59;25.40;65.70
34640;DHT22;22600;48.186;11.526;2022-08-21T07:33:26;25.50;65.70
34640;DHT22;22600;48.186;11.526;2022-08-21T07:35:52;25.40;65.50
34640;DHT22;22600;48.186;11.526;2022-08-21T07:38:18;25.50;65.70
34640;DHT22;22600;48.186;11.526;2022-08-21T07:40:45;25.50;65.60
34640;DHT22;22600;48.186;11.526;2022-08-21T07:43:10;25.50;66.00
34640;DHT22;22600;48.186;11.526;2022-08-21T07:45:36;25.10;65.90
34640;DHT22;22600;48.186;11.526;2022-08-21T07:48:02;25.50;65.50
34640;DHT22;22600;48.186;11.526;2022-08-21T07:50:28;25.50;65.50
34640;DHT22;22600;48.186;11.526;2022-08-21T07:52:54;25.50;65.50
34640;DHT22;22600;48.186;11.526;2022-08-21T07:55:20;25.50;65.50
34640;DHT22;22600;48.186;11.526;2022-08-21T07:57:47;25.50;65.40
34640;DHT22;22600;48.186;11.526;2022-08-21T08:00:17;25.50;65.40
34640;DHT22;22600;48.186;11.526;2022-08-21T08:02:46;25.50;65.40
34640;DHT22;22600;48.186;11.526;2022-08-21T08:05:15;25.50;65.40
34640;DHT22;22600;48.186;11.526;2022-08-21T08:07:41;25.50;65.40
34640;DHT22;22600;48.186;11.526;2022-08-21T08:10:07;25.50;65.40
34640;DHT22;22600;48.186;11.526;2022-08-21T08:12:35;25.50;65.30
34640;DHT22;22600;48.186;11.526;2022-08-21T08:15:01;25.50;65.30
34640;DHT22;22600;48.186;11.526;2022-08-21T08:17:27;25.50;64.70
34640;DHT22;22600;48.186;11.526;2022-08-21T08:19:53;25.50;65.30
34640;DHT22;22600;48.186;11.526;2022-08-21T08:22:21;25.60;65.30
34640;DHT22;22600;48.186;11.526;2022-08-21T08:24:49;25.50;65.20
34640;DHT22;22600;48.186;11.526;2022-08-21T08:27:15;25.50;65.30
34640;DHT22;22600;48.186;11.526;2022-08-21T08:29:42;25.50;65.20
34640;DHT22;22600;48.186;11.526;2022-08-21T08:32:08;25.60;65.30
34640;DHT22;22600;48.186;11.526;2022-08-21T08:34:37;25.50;65.30
34640;DHT22;22600;48.186;11.526;2022-08-21T08:37:04;25.50;65.20
34640;DHT22;22600;48.186;11.526;2022-08-21T08:39:30;25.50;65.20
34640;DHT22;22600;48.186;11.526;2022-08-21T08:42:07;25.50;65.20
34640;DHT22;22600;48.186;11.526;2022-08-21T08:44:36;25.60;65.30
34640;DHT22;22600;48.186;11.526;2022-08-21T08:47:02;25.50;65.20
34640;DHT22;22600;48.186;11.526;2022-08-21T08:49:39;25.50;65.60
34640;DHT22;22600;48.186;11.526;2022-08-21T08:52:22;25.50;65.20
34640;DHT22;22600;48.186;11.526;2022-08-21T08:57:27;25.50;65.30
34640;DHT22;22600;48.186;11.526;2022-08-21T09:00:00;25.50;65.30
34640;DHT22;22600;48.186;11.526;2022-08-21T09:02:26;25.50;65.30
34640;DHT22;22600;48.186;11.526;2022-08-21T09:04:55;25.50;65.30
34640;DHT22;22600;48.186;11.526;2022-08-21T09:13:18;25.50;65.40
34640;DHT22;22600;48.186;11.526;2022-08-21T09:18:38;25.50;65.40
34640;DHT22;22600;48.186;11.526;2022-08-21T09:21:17;25.50;65.50
34640;DHT22;22600;48.186;11.526;2022-08-21T09:24:01;25.50;65.50
34640;DHT22;22600;48.186;11.526;2022-08-21T09:26:45;25.40;65.40
34640;DHT22;22600;48.186;11.526;2022-08-21T09:29:13;25.40;65.40
34640;DHT22;22600;48.186;11.526;2022-08-21T09:31:38;25.50;65.60
34640;DHT22;22600;48.186;11.526;2022-08-21T09:34:07;25.40;65.50
34640;DHT22;22600;48.186;11.526;2022-08-21T09:38:59;25.40;66.30
34640;DHT22;22600;48.186;11.526;2022-08-21T09:41:29;25.30;65.50
34640;DHT22;22600;48.186;11.526;2022-08-21T09:43:56;25.30;65.50
34640;DHT22;22600;48.186;11.526;2022-08-21T09:46:24;25.30;65.60
34640;DHT22;22600;48.186;11.526;2022-08-21T09:48:54;25.30;65.70
34640;DHT22;22600;48.186;11.526;2022-08-21T09:51:29;25.30;65.70
34640;DHT22;22600;48.186;11.526;2022-08-21T09:56:56;25.30;65.80
34640;DHT22;22600;48.186;11.526;2022-08-21T09:59:41;25.30;65.90
34640;DHT22;22600;48.186;11.526;2022-08-21T10:02:32;25.20;65.80
34640;DHT22;22600;48.186;11.526;2022-08-21T10:07:31;25.20;65.90
34640;DHT22;22600;48.186;11.526;2022-08-21T10:12:49;25.20;66.00
34640;DHT22;22600;48.186;11.526;2022-08-21T10:15:27;25.20;66.10
34640;DHT22;22600;48.186;11.526;2022-08-21T10:18:11;25.20;66.10
34640;DHT22;22600;48.186;11.526;2022-08-21T10:20:44;25.20;66.20
34640;DHT22;22600;48.186;11.526;2022-08-21T10:26:05;25.10;66.30
34640;DHT22;22600;48.186;11.526;2022-08-21T10:28:41;25.10;66.30
34640;DHT22;22600;48.186;11.526;2022-08-21T10:31:25;25.10;67.10
34640;DHT22;22600;48.186;11.526;2022-08-21T10:39:35;25.10;66.30
34640;DHT22;22600;48.186;11.526;2022-08-21T10:42:25;25.10;66.40
34640;DHT22;22600;48.186;11.526;2022-08-21T10:47:37;25.10;66.40
34640;DHT22;22600;48.186;11.526;2022-08-21T10:50:31;25.10;66.50
34640;DHT22;22600;48.186;11.526;2022-08-21T10:55:59;25.10;67.30
34640;DHT22;22600;48.186;11.526;2022-08-21T10:58:33;25.10;66.60
34640;DHT22;22600;48.186;11.526;2022-08-21T11:01:15;25.00;66.60
34640;DHT22;22600;48.186;11.526;2022-08-21T11:03:46;25.10;66.70
34640;DHT22;22600;48.186;11.526;2022-08-21T11:06:20;25.10;66.70
34640;DHT22;22600;48.186;11.526;2022-08-21T11:08:49;25.00;66.60
34640;DHT22;22600;48.186;11.526;2022-08-21T11:14:41;25.00;66.70
34640;DHT22;22600;48.186;11.526;2022-08-21T11:17:13;25.00;66.70
34640;DHT22;22600;48.186;11.526;2022-08-21T11:20:02;25.00;66.70
34640;DHT22;22600;48.186;11.526;2022-08-21T11:22:37;25.00;66.70
34640;DHT22;22600;48.186;11.526;2022-08-21T11:30:12;25.00;66.80
34640;DHT22;22600;48.186;11.526;2022-08-21T11:35:37;25.00;66.80
34640;DHT22;22600;48.186;11.526;2022-08-21T11:38:22;24.90;66.80
34640;DHT22;22600;48.186;11.526;2022-08-21T11:40:54;24.90;66.80
34640;DHT22;22600;48.186;11.526;2022-08-21T11:43:37;24.90;66.80
34640;DHT22;22600;48.186;11.526;2022-08-21T11:54:39;24.90;66.90
34640;DHT22;22600;48.186;11.526;2022-08-21T11:57:22;24.90;67.00
34640;DHT22;22600;48.186;11.526;2022-08-21T11:59:53;24.90;67.00
34640;DHT22;22600;48.186;11.526;2022-08-21T12:02:24;24.90;67.00
34640;DHT22;22600;48.186;11.526;2022-08-21T12:05:00;24.90;67.10
34640;DHT22;22600;48.186;11.526;2022-08-21T12:07:39;24.90;67.10
34640;DHT22;22600;48.186;11.526;2022-08-21T12:10:12;24.90;67.10
34640;DHT22;22600;48.186;11.526;2022-08-21T12:12:40;24.90;67.10
34640;DHT22;22600;48.186;11.526;2022-08-21T12:18:05;24.90;67.10
34640;DHT22;22600;48.186;11.526;2022-08-21T12:20:56;24.90;67.90
34640;DHT22;22600;48.186;11.526;2022-08-21T12:26:17;24.90;67.20
34640;DHT22;22600;48.186;11.526;2022-08-21T12:28:44;24.80;67.20
34640;DHT22;22600;48.186;11.526;2022-08-21T12:31:23;24.90;67.20
34640;DHT22;22600;48.186;11.526;2022-08-21T12:33:56;24.90;67.20
34640;DHT22;22600;48.186;11.526;2022-08-21T12:37:12;24.90;67.20
34640;DHT22;22600;48.186;11.526;2022-08-21T12:39:19;24.90;67.20
34640;DHT22;22600;48.186;11.526;2022-08-21T12:41:53;24.90;67.20
34640;DHT22;22600;48.186;11.526;2022-08-21T12:44:27;24.80;67.20
34640;DHT22;22600;48.186;11.526;2022-08-21T12:47:02;24.80;67.20
34640;DHT22;22600;48.186;11.526;2022-08-21T12:49:39;24.90;67.30
34640;DHT22;22600;48.186;11.526;2022-08-21T12:52:32;24.80;67.20
34640;DHT22;22600;48.186;11.526;2022-08-21T12:54:58;24.80;67.20
34640;DHT22;22600;48.186;11.526;2022-08-21T12:57:26;24.80;67.20
34640;DHT22;22600;48.186;11.526;2022-08-21T12:59:54;24.80;67.20
34640;DHT22;22600;48.186;11.526;2022-08-21T13:02:24;24.80;67.30
34640;DHT22;22600;48.186;11.526;2022-08-21T13:04:52;24.80;67.30
34640;DHT22;22600;48.186;11.526;2022-08-21T13:07:33;24.80;67.30
34640;DHT22;22600;48.186;11.526;2022-08-21T13:10:01;24.80;67.30
34640;DHT22;22600;48.186;11.526;2022-08-21T13:12:30;24.90;67.40
34640;DHT22;22600;48.186;11.526;2022-08-21T13:14:58;24.80;67.40
34640;DHT22;22600;48.186;11.526;2022-08-21T13:17:26;24.80;66.80
34640;DHT22;22600;48.186;11.526;2022-08-21T13:20:09;24.80;67.40
34640;DHT22;22600;48.186;11.526;2022-08-21T13:22:43;24.80;67.40
34640;DHT22;22600;48.186;11.526;2022-08-21T13:25:14;24.90;67.50
34640;DHT22;22600;48.186;11.526;2022-08-21T13:27:41;24.80;67.40
34640;DHT22;22600;48.186;11.526;2022-08-21T13:30:12;24.80;67.50
34640;DHT22;22600;48.186;11.526;2022-08-21T13:32:44;24.80;67.40
34640;DHT22;22600;48.186;11.526;2022-08-21T13:37:42;24.80;67.50
34640;DHT22;22600;48.186;11.526;2022-08-21T13:40:12;24.80;67.50
34640;DHT22;22600;48.186;11.526;2022-08-21T13:42:42;24.80;67.50
34640;DHT22;22600;48.186;11.526;2022-08-21T13:45:14;24.80;67.50
34640;DHT22;22600;48.186;11.526;2022-08-21T13:47:40;24.80;67.50
34640;DHT22;22600;48.186;11.526;2022-08-21T13:50:06;24.80;67.50
34640;DHT22;22600;48.186;11.526;2022-08-21T13:52:33;24.80;67.50
34640;DHT22;22600;48.186;11.526;2022-08-21T13:55:06;24.80;67.50
34640;DHT22;22600;48.186;11.526;2022-08-21T13:57:34;24.80;68.30
34640;DHT22;22600;48.186;11.526;2022-08-21T14:00:16;24.80;67.50
34640;DHT22;22600;48.186;11.526;2022-08-21T14:02:44;24.80;67.50
34640;DHT22;22600;48.186;11.526;2022-08-21T14:05:18;24.70;67.50
34640;DHT22;22600;48.186;11.526;2022-08-21T14:07:45;24.80;67.60
34640;DHT22;22600;48.186;11.526;2022-08-21T14:10:20;24.80;67.60
34640;DHT22;22600;48.186;11.526;2022-08-21T14:12:50;24.80;67.50
34640;DHT22;22600;48.186;11.526;2022-08-21T14:15:19;24.70;67.50
34640;DHT22;22600;48.186;11.526;2022-08-21T14:17:47;24.80;67.60
34640;DHT22;22600;48.186;11.526;2022-08-21T14:20:31;24.80;67.60
34640;DHT22;22600;48.186;11.526;2022-08-21T14:22:57;24.80;67.60
34640;DHT22;22600;48.186;11.526;2022-08-21T14:28:09;22.50;66.10
34640;DHT22;22600;48.186;11.526;2022-08-21T14:30:39;24.80;67.60
34640;DHT22;22600;48.186;11.526;2022-08-21T14:33:10;24.80;67.60
34640;DHT22;22600;48.186;11.526;2022-08-21T14:35:36;24.80;67.60
34640;DHT22;22600;48.186;11.526;2022-08-21T14:38:02;24.80;67.60
34640;DHT22;22600;48.186;11.526;2022-08-21T14:40:28;24.80;67.60
34640;DHT22;22600;48.186;11.526;2022-08-21T14:42:54;24.80;67.70
34640;DHT22;22600;48.186;11.526;2022-08-21T14:45:26;24.80;67.60
34640;DHT22;22600;48.186;11.526;2022-08-21T14:47:53;24.80;67.70
34640;DHT22;22600;48.186;11.526;2022-08-21T14:50:19;24.80;67.70
34640;DHT22;22600;48.186;11.526;2022-08-21T14:52:44;24.80;67.60
34640;DHT22;22600;48.186;11.526;2022-08-21T14:55:12;24.80;67.60
34640;DHT22;22600;48.186;11.526;2022-08-21T14:57:46;24.80;67.60
34640;DHT22;22600;48.186;11.526;2022-08-21T15:00:15;24.70;67.60
34640;DHT22;22600;48.186;11.526;2022-08-21T15:02:42;24.80;67.60
34640;DHT22;22600;48.186;11.526;2022-08-21T15:05:08;24.80;67.60
34640;DHT22;22600;48.186;11.526;2022-08-21T15:07:34;24.80;67.60
34640;DHT22;22600;48.186;11.526;2022-08-21T15:09:59;24.80;67.60
34640;DHT22;22600;48.186;11.526;2022-08-21T15:12:25;24.80;67.10
34640;DHT22;22600;48.186;11.526;2022-08-21T15:14:51;24.80;67.70
34640;DHT22;22600;48.186;11.526;2022-08-21T15:17:17;24.80;67.60
34640;DHT22;22600;48.186;11.526;2022-08-21T15:19:42;24.80;67.60
34640;DHT22;22600;48.186;11.526;2022-08-21T15:22:08;24.80;67.60
34640;DHT22;22600;48.186;11.526;2022-08-21T15:24:34;24.80;67.60
34640;DHT22;22600;48.186;11.526;2022-08-21T15:27:01;24.80;67.60
34640;DHT22;22600;48.186;11.526;2022-08-21T15:29:29;24.80;67.60
34640;DHT22;22600;48.186;11.526;2022-08-21T15:31:57;24.80;67.60
34640;DHT22;22600;48.186;11.526;2022-08-21T15:34:25;24.80;67.60
34640;DHT22;22600;48.186;11.526;2022-08-21T15:36:51;24.80;67.60
34640;DHT22;22600;48.186;11.526;2022-08-21T15:39:17;24.80;67.60
34640;DHT22;22600;48.186;11.526;2022-08-21T15:41:43;24.80;67.60
34640;DHT22;22600;48.186;11.526;2022-08-21T15:44:11;24.80;67.60
34640;DHT22;22600;48.186;11.526;2022-08-21T15:46:39;24.80;67.60
34640;DHT22;22600;48.186;11.526;2022-08-21T15:49:05;24.70;68.40
34640;DHT22;22600;48.186;11.526;2022-08-21T15:51:32;24.80;67.60
34640;DHT22;22600;48.186;11.526;2022-08-21T15:53:57;24.80;67.60
34640;DHT22;22600;48.186;11.526;2022-08-21T15:56:32;24.70;67.60
34640;DHT22;22600;48.186;11.526;2022-08-21T15:59:00;24.70;67.50
34640;DHT22;22600;48.186;11.526;2022-08-21T16:01:27;24.70;67.50
34640;DHT22;22600;48.186;11.526;2022-08-21T16:03:54;24.70;67.50
34640;DHT22;22600;48.186;11.526;2022-08-21T16:06:20;24.80;67.70
34640;DHT22;22600;48.186;11.526;2022-08-21T16:08:46;24.80;67.60
34640;DHT22;22600;48.186;11.526;2022-08-21T16:11:12;24.70;67.60
34640;DHT22;22600;48.186;11.526;2022-08-21T16:13:41;24.80;67.60
34640;DHT22;22600;48.186;11.526;2022-08-21T16:16:09;24.70;67.50
34640;DHT22;22600;48.186;11.526;2022-08-21T16:18:36;24.70;67.60
34640;DHT22;22600;48.186;11.526;2022-08-21T16:21:02;24.70;67.60
34640;DHT22;22600;48.186;11.526;2022-08-21T16:23:27;24.70;67.60
34640;DHT22;22600;48.186;11.526;2022-08-21T16:25:54;24.70;67.50
34640;DHT22;22600;48.186;11.526;2022-08-21T16:28:20;24.60;67.50
34640;DHT22;22600;48.186;11.526;2022-08-21T16:30:48;24.70;67.60
34640;DHT22;22600;48.186;11.526;2022-08-21T16:33:29;24.70;67.60